Time;durP1;ratioP1;P1;durP2;ratioP2;P2;SDS_P1;SDS_P2;PMS_P1;PMS_P2;Temp;Humidity;BMP_temperature;BMP_pressure;BME280_temperature;BME280_humidity;BME280_pressure;Samples;Min_cycle;Max_cycle;Signal;HPM_P1;HPM_P2
2023/12/18 00:01:04;;;;;;;9.27;3.10;;;;;;;-0.92;100.00;100116.78;5093634;28;20043;-65
2023/12/18 00:03:30;;;;;;;14.70;5.67;;;;;;;-0.18;100.00;100235.50;5093567;28;20035;-63
2023/12/18 00:05:55;;;;;;;10.23;3.10;;;;;;;-0.05;100.00;100280.78;5093236;28;20554;-66
2023/12/18 00:08:21;;;;;;;10.33;3.43;;;;;;;-0.09;100.00;100284.56;5092895;28;20112;-64
2023/12/18 00:10:47;;;;;;;12.30;2.87;;;;;;;-0.25;100.00;100279.56;5092895;28;20119;-67
2023/12/18 00:13:12;;;;;;;5.57;3.50;;;;;;;-0.25;100.00;100284.81;5092966;28;20028;-65
2023/12/18 00:15:38;;;;;;;9.50;2.97;;;;;;;-0.44;100.00;100259.06;5092799;28;20140;-63
2023/12/18 00:18:04;;;;;;;8.57;3.20;;;;;;;-0.38;100.00;100257.78;5091768;28;20415;-65
2023/12/18 00:20:29;;;;;;;7.43;3.57;;;;;;;-0.36;100.00;100263.75;5092345;28;20032;-65
2023/12/18 00:22:55;;;;;;;9.67;3.17;;;;;;;-0.23;100.00;100282.09;5093014;28;20047;-66
2023/12/18 00:25:20;;;;;;;8.67;2.90;;;;;;;-0.18;100.00;100282.59;5092683;28;20031;-65
2023/12/18 00:27:46;;;;;;;11.97;4.60;;;;;;;-0.29;100.00;100245.84;5092667;28;20409;-66
2023/12/18 00:30:12;;;;;;;10.33;3.63;;;;;;;-0.15;100.00;100269.31;5092650;28;20036;-64
2023/12/18 00:32:38;;;;;;;4.57;3.37;;;;;;;-0.05;100.00;100275.56;5092536;28;20032;-64
2023/12/18 00:35:03;;;;;;;10.60;2.93;;;;;;;-0.02;100.00;100259.63;5092599;28;20484;-64
2023/12/18 00:37:30;;;;;;;9.97;3.13;;;;;;;-0.07;100.00;100240.81;5092743;28;20089;-63
2023/12/18 00:39:56;;;;;;;8.97;3.37;;;;;;;0.13;100.00;100279.53;5092477;28;20321;-64
2023/12/18 00:42:22;;;;;;;10.30;3.23;;;;;;;0.18;100.00;100266.09;5092842;28;20047;-65
2023/12/18 00:44:47;;;;;;;6.40;3.60;;;;;;;0.22;100.00;100267.56;5092554;28;20047;-67
2023/12/18 00:47:13;;;;;;;6.87;2.87;;;;;;;0.18;100.00;100243.38;5092479;28;20040;-64
2023/12/18 00:49:38;;;;;;;7.50;3.43;;;;;;;0.18;100.00;100235.50;5091093;28;20036;-65
2023/12/18 00:52:04;;;;;;;8.07;3.30;;;;;;;0.23;100.00;100235.19;5092270;28;20036;-62
2023/12/18 00:54:30;;;;;;;6.33;3.17;;;;;;;0.23;100.00;100227.31;5090712;28;20410;-63
2023/12/18 00:56:55;;;;;;;5.73;2.50;;;;;;;-0.36;100.00;100136.38;5092051;28;20123;-65
2023/12/18 00:59:21;;;;;;;8.97;2.83;;;;;;;0.42;100.00;100250.41;5090975;28;20039;-64
2023/12/18 01:01:46;;;;;;;7.00;3.37;;;;;;;0.57;100.00;100267.63;5092313;28;20038;-63
2023/12/18 01:04:12;;;;;;;5.03;2.73;;;;;;;0.56;100.00;100255.50;5092160;28;20089;-65
2023/12/18 01:06:37;;;;;;;6.63;3.10;;;;;;;0.55;100.00;100257.28;5092087;28;20043;-65
2023/12/18 01:09:03;;;;;;;7.07;3.03;;;;;;;0.46;100.00;100246.63;5090573;28;20036;-63
2023/12/18 01:11:29;;;;;;;10.83;3.10;;;;;;;0.65;100.00;100277.59;5090732;28;20164;-63
2023/12/18 01:13:54;;;;;;;6.23;3.33;;;;;;;0.56;100.00;100261.56;5091697;28;20043;-64
2023/12/18 01:16:20;;;;;;;7.30;2.63;;;;;;;0.63;100.00;100266.38;5091966;28;20131;-65
2023/12/18 01:18:46;;;;;;;4.33;2.50;;;;;;;0.69;100.00;100271.19;5091481;28;20052;-63
2023/12/18 01:21:14;;;;;;;5.30;2.60;;;;;;;0.64;100.00;100261.03;5092293;28;20071;-64
2023/12/18 01:23:40;;;;;;;9.73;3.08;;;;;;;0.60;100.00;100255.19;5090356;28;20349;-64
2023/12/18 01:26:05;;;;;;;8.20;3.60;;;;;;;0.61;100.00;100258.63;5091789;28;20085;-63
2023/12/18 01:28:31;;;;;;;7.43;3.00;;;;;;;0.62;100.00;100257.69;5091859;28;20046;-62
2023/12/18 01:30:57;;;;;;;7.83;2.30;;;;;;;0.79;100.00;100285.28;5090903;28;20058;-64
2023/12/18 01:33:22;;;;;;;3.00;2.70;;;;;;;0.77;100.00;100274.91;5091789;28;20086;-65
2023/12/18 01:35:48;;;;;;;8.90;3.63;;;;;;;0.69;100.00;100263.31;5092028;28;20039;-64
2023/12/18 01:38:14;;;;;;;9.47;3.30;;;;;;;0.78;100.00;100284.44;5091615;28;20403;-67
2023/12/18 01:40:39;;;;;;;4.77;2.60;;;;;;;0.59;100.00;100250.88;5095610;28;20537;-64
2023/12/18 01:43:24;;;;;;;5.70;2.30;;;;;;;0.72;100.00;100279.66;5093169;28;20033;-64
2023/12/18 01:45:58;;;;;;;4.57;2.97;;;;;;;0.70;100.00;100281.53;5090498;28;20554;-65
2023/12/18 01:48:25;;;;;;;9.43;3.57;;;;;;;0.63;100.00;100259.34;5099337;28;20270;-63
2023/12/18 01:50:55;;;;;;;9.40;3.07;;;;;;;0.60;100.00;100254.34;5096074;28;20269;-66
2023/12/18 01:53:27;;;;;;;4.17;2.70;;;;;;;0.57;100.00;100254.53;5091845;28;20311;-63
2023/12/18 01:55:54;;;;;;;5.77;2.57;;;;;;;0.61;100.00;100264.72;5091793;28;20277;-64
2023/12/18 01:58:19;;;;;;;5.00;2.37;;;;;;;0.51;100.00;100245.34;5092251;28;20832;-64
2023/12/18 02:00:46;;;;;;;8.20;2.50;;;;;;;0.73;100.00;100273.47;5092199;28;20415;-65
2023/12/18 02:03:12;;;;;;;5.10;2.50;;;;;;;0.66;100.00;100272.25;5091234;28;20039;-64
2023/12/18 02:05:39;;;;;;;7.03;2.70;;;;;;;0.66;100.00;100264.38;5091330;28;20316;-64
2023/12/18 02:08:06;;;;;;;7.23;3.17;;;;;;;0.55;100.00;100262.50;5091305;28;20645;-66
2023/12/18 02:10:32;;;;;;;5.67;2.20;;;;;;;0.51;100.00;100249.75;5091488;28;20370;-64
2023/12/18 02:12:58;;;;;;;10.87;2.90;;;;;;;0.46;100.00;100244.00;5091396;28;20693;-66
2023/12/18 02:15:23;;;;;;;5.50;2.80;;;;;;;0.53;100.00;100253.94;5090916;28;20142;-66
2023/12/18 02:17:50;;;;;;;6.80;3.73;;;;;;;0.65;100.00;100265.31;5091046;28;20395;-63
2023/12/18 02:20:16;;;;;;;9.77;3.73;;;;;;;0.59;100.00;100231.72;5089776;28;20041;-64
2023/12/18 02:22:47;;;;;;;8.37;5.23;;;;;;;0.73;100.00;100265.59;5091258;28;20271;-65
2023/12/18 02:25:16;;;;;;;5.83;3.20;;;;;;;0.65;100.00;100248.75;5088944;28;20122;-66
2023/12/18 02:27:44;;;;;;;4.90;2.60;;;;;;;0.57;100.00;100223.09;5088832;28;20281;-68
2023/12/18 02:30:17;;;;;;;;;;;;;;;0.79;100.00;100261.69;5090580;28;20036;-65
2023/12/18 02:32:43;;;;;;;8.67;2.87;;;;;;;0.65;100.00;100254.00;5090957;28;19923;-67
2023/12/18 02:35:09;;;;;;;6.93;2.87;;;;;;;0.71;100.00;100248.31;5090294;28;20278;-64
2023/12/18 02:37:35;;;;;;;6.47;3.50;;;;;;;0.80;100.00;100258.94;5091052;28;20785;-64
2023/12/18 02:40:00;;;;;;;5.73;2.47;;;;;;;0.65;100.00;100239.13;5090398;28;20082;-64
2023/12/18 02:42:26;;;;;;;3.13;2.40;;;;;;;0.84;100.00;100260.38;5092493;28;20064;-64
2023/12/18 02:44:53;;;;;;;10.63;3.00;;;;;;;0.80;100.00;100245.84;5095724;28;20043;-66
2023/12/18 02:47:19;;;;;;;8.40;3.30;;;;;;;0.68;100.00;100228.41;5096753;28;20377;-63
2023/12/18 02:49:44;;;;;;;6.30;2.70;;;;;;;0.87;100.00;100249.72;5097840;28;20273;-64
2023/12/18 02:52:10;;;;;;;7.10;2.53;;;;;;;0.85;100.00;100241.09;5096235;28;20078;-64
2023/12/18 02:54:37;;;;;;;8.03;4.07;;;;;;;0.79;100.00;100232.84;5096664;28;20047;-64
2023/12/18 02:57:03;;;;;;;8.87;2.47;;;;;;;0.90;100.00;100248.63;5097316;28;20130;-63
2023/12/18 02:59:28;;;;;;;6.13;3.10;;;;;;;0.57;100.00;100199.50;5095766;28;20630;-64
2023/12/18 03:01:54;;;;;;;12.73;3.87;;;;;;;0.92;100.00;100255.44;5096016;28;20036;-64
2023/12/18 03:04:20;;;;;;;8.33;2.90;;;;;;;0.84;100.00;100254.31;5097684;28;20055;-63
2023/12/18 03:06:46;;;;;;;10.50;2.87;;;;;;;0.74;100.00;100237.59;5095209;28;20032;-63
2023/12/18 03:09:12;;;;;;;4.90;2.53;;;;;;;0.74;100.00;100227.13;5093319;28;20962;-64
2023/12/18 03:11:40;;;;;;;5.77;2.53;;;;;;;0.56;100.00;100203.09;5076325;28;20276;-64
2023/12/18 03:14:05;;;;;;;5.10;2.53;;;;;;;0.78;100.00;100241.66;5094245;28;20432;-62
2023/12/18 03:16:31;;;;;;;8.30;3.07;;;;;;;0.88;100.00;100251.38;5094355;28;20291;-63
2023/12/18 03:18:56;;;;;;;11.40;4.57;;;;;;;0.05;100.00;100122.16;5094491;28;20032;-64
2023/12/18 03:21:22;;;;;;;5.47;4.00;;;;;;;0.83;100.00;100248.22;5094309;28;20097;-64
2023/12/18 03:23:47;;;;;;;4.93;2.63;;;;;;;0.79;100.00;100243.34;5094104;28;20093;-64
2023/12/18 03:26:13;;;;;;;5.30;2.87;;;;;;;0.71;100.00;100233.41;5094141;28;20043;-63
2023/12/18 03:28:39;;;;;;;8.80;2.90;;;;;;;0.70;100.00;100233.53;5094007;28;20203;-64
2023/12/18 03:31:04;;;;;;;8.93;3.73;;;;;;;0.75;100.00;100253.22;5094582;28;20040;-64
2023/12/18 03:33:30;;;;;;;6.73;3.17;;;;;;;0.88;100.00;100261.88;5093819;28;20067;-66
2023/12/18 03:35:56;;;;;;;6.77;3.33;;;;;;;0.82;100.00;100251.81;5093958;28;20471;-62
2023/12/18 03:38:22;;;;;;;5.93;2.77;;;;;;;0.82;100.00;100251.81;5093367;28;20883;-65
2023/12/18 03:40:47;;;;;;;7.93;2.70;;;;;;;0.83;100.00;100256.09;5094020;28;20093;-62
2023/12/18 03:43:13;;;;;;;8.43;3.33;;;;;;;0.66;100.00;100227.69;5093976;28;20722;-63
2023/12/18 03:45:39;;;;;;;6.47;2.97;;;;;;;0.86;100.00;100248.00;5093640;28;20369;-64
2023/12/18 03:48:05;;;;;;;8.67;2.47;;;;;;;0.92;100.00;100251.97;5092698;28;20060;-63
2023/12/18 03:50:30;;;;;;;7.37;2.60;;;;;;;0.91;100.00;100266.88;5093839;28;20439;-64
2023/12/18 03:52:56;;;;;;;11.37;3.00;;;;;;;0.74;100.00;100243.69;5094183;28;20507;-64
2023/12/18 03:55:21;;;;;;;8.63;2.67;;;;;;;0.78;100.00;100257.38;5092740;28;20040;-64
2023/12/18 03:57:47;;;;;;;6.10;2.50;;;;;;;0.80;100.00;100258.94;5093475;28;20549;-64
2023/12/18 04:00:13;;;;;;;7.10;2.50;;;;;;;0.85;100.00;100261.22;5093818;28;20118;-64
2023/12/18 04:02:39;;;;;;;7.70;3.07;;;;;;;0.88;100.00;100269.72;5093798;28;20038;-66
2023/12/18 04:05:05;;;;;;;7.37;3.40;;;;;;;0.97;100.00;100280.47;5093847;28;20258;-63
2023/12/18 04:07:30;;;;;;;9.23;3.57;;;;;;;0.93;100.00;100257.13;5093454;28;20044;-66
2023/12/18 04:09:56;;;;;;;5.40;2.67;;;;;;;1.03;100.00;100270.38;5093864;28;20292;-64
2023/12/18 04:12:21;;;;;;;7.67;3.00;;;;;;;1.10;100.00;100270.75;5091911;28;20027;-63
2023/12/18 04:14:47;;;;;;;4.50;3.17;;;;;;;1.05;100.00;100257.97;5092429;28;20048;-66
2023/12/18 04:17:13;;;;;;;6.37;2.90;;;;;;;1.16;100.00;100267.69;5093409;28;20492;-64
2023/12/18 04:19:38;;;;;;;8.33;3.47;;;;;;;1.02;100.00;100244.25;5093162;28;20147;-65
2023/12/18 04:22:04;;;;;;;14.87;3.20;;;;;;;1.15;100.00;100258.13;5093114;28;20039;-64
2023/12/18 04:24:29;;;;;;;5.40;3.13;;;;;;;1.25;100.00;100269.59;5092988;28;20404;-65
2023/12/18 04:26:56;;;;;;;6.47;3.03;;;;;;;1.07;100.00;100250.00;5092782;28;20036;-64
2023/12/18 04:29:21;;;;;;;4.07;2.67;;;;;;;1.19;100.00;100278.78;5091463;28;20123;-65
2023/12/18 04:31:50;;;;;;;9.20;3.77;;;;;;;1.16;100.00;100262.44;5092976;28;20753;-66
2023/12/18 04:34:15;;;;;;;11.40;4.03;;;;;;;1.17;100.00;100258.88;5093323;28;20028;-65
2023/12/18 04:36:41;;;;;;;6.93;3.03;;;;;;;0.84;100.00;100218.44;5092603;28;20609;-65
2023/12/18 04:39:06;;;;;;;7.30;2.90;;;;;;;1.22;100.00;100280.34;5092650;28;20031;-64
2023/12/18 04:41:32;;;;;;;9.47;3.17;;;;;;;1.20;100.00;100267.34;5092382;28;20044;-65
2023/12/18 04:43:59;;;;;;;10.60;3.07;;;;;;;1.24;100.00;100278.44;5092527;28;20040;-65
2023/12/18 04:46:25;;;;;;;5.27;3.00;;;;;;;1.17;100.00;100256.25;5092826;28;20039;-65
2023/12/18 04:48:50;;;;;;;6.07;2.67;;;;;;;1.11;100.00;100248.81;5092622;28;20266;-66
2023/12/18 04:51:16;;;;;;;10.70;5.17;;;;;;;1.22;100.00;100275.09;5092232;28;20292;-65
2023/12/18 04:53:41;;;;;;;8.03;3.67;;;;;;;1.20;100.00;100287.47;5092375;28;20552;-64
2023/12/18 04:56:07;;;;;;;6.67;2.90;;;;;;;1.14;100.00;100278.25;5092257;28;20057;-65
2023/12/18 04:58:35;;;;;;;5.43;3.10;;;;;;;1.09;100.00;100267.28;5092581;28;20032;-64
2023/12/18 05:01:02;;;;;;;7.13;3.22;;;;;;;1.14;100.00;100283.50;5073986;28;20034;-68
2023/12/18 05:03:28;;;;;;;7.20;3.17;;;;;;;1.14;100.00;100274.81;5092457;28;20028;-64
2023/12/18 05:05:54;;;;;;;7.07;2.93;;;;;;;1.15;100.00;100276.47;5090748;28;20269;-65
2023/12/18 05:08:19;;;;;;;9.17;3.47;;;;;;;1.11;100.00;100275.03;5091537;28;20032;-64
2023/12/18 05:10:45;;;;;;;8.30;3.50;;;;;;;0.87;100.00;100231.34;5092130;28;20036;-65
2023/12/18 05:13:11;;;;;;;7.17;3.10;;;;;;;1.11;100.00;100262.75;5090456;28;20039;-64
2023/12/18 05:15:37;;;;;;;8.87;3.20;;;;;;;1.13;100.00;100265.25;5090954;28;20052;-65
2023/12/18 05:18:07;;;;;;;7.30;3.50;;;;;;;1.25;100.00;100295.84;5093220;28;20094;-64
2023/12/18 05:20:33;;;;;;;9.67;4.33;;;;;;;1.19;100.00;100270.91;5090940;28;20393;-66
2023/12/18 05:22:58;;;;;;;5.37;2.73;;;;;;;1.05;100.00;100262.38;5092456;28;20349;-63
2023/12/18 05:25:24;;;;;;;9.40;3.03;;;;;;;1.16;100.00;100275.56;5091989;28;20117;-65
2023/12/18 05:27:49;;;;;;;8.80;3.17;;;;;;;1.10;100.00;100270.75;5092527;28;20055;-67
2023/12/18 05:30:15;;;;;;;8.13;3.33;;;;;;;1.12;100.00;100284.56;5091595;28;20028;-66
2023/12/18 05:32:40;;;;;;;6.90;3.10;;;;;;;1.08;100.00;100275.25;5091658;28;20091;-65
2023/12/18 05:35:07;;;;;;;7.33;3.57;;;;;;;0.33;100.00;100155.00;5091972;28;20142;-63
2023/12/18 05:37:32;;;;;;;7.37;2.87;;;;;;;1.22;100.00;100296.91;5090388;28;20067;-63
2023/12/18 05:39:58;;;;;;;6.83;3.27;;;;;;;1.07;100.00;100281.47;5092036;28;20745;-66
2023/12/18 05:42:23;;;;;;;9.13;3.00;;;;;;;1.15;100.00;100294.84;5093158;28;20031;-66
2023/12/18 05:44:49;;;;;;;8.20;2.60;;;;;;;1.12;100.00;100290.66;5091823;28;20036;-63
2023/12/18 05:47:14;;;;;;;6.13;2.83;;;;;;;1.05;100.00;100275.50;5092126;28;20032;-64
2023/12/18 05:49:40;;;;;;;12.53;3.00;;;;;;;0.84;100.00;100252.53;5091454;28;20036;-66
2023/12/18 05:52:06;;;;;;;8.03;2.60;;;;;;;1.19;100.00;100301.56;5090090;28;20101;-67
2023/12/18 05:54:31;;;;;;;8.80;2.97;;;;;;;1.14;100.00;100301.03;5091496;28;20028;-64
2023/12/18 05:56:57;;;;;;;6.93;2.80;;;;;;;1.09;100.00;100284.81;5090161;28;20069;-67
2023/12/18 05:59:23;;;;;;;6.20;2.93;;;;;;;1.18;100.00;100289.38;5091475;28;20039;-66
2023/12/18 06:01:48;;;;;;;8.03;3.30;;;;;;;1.24;100.00;100294.16;5091605;28;20427;-65
2023/12/18 06:04:14;;;;;;;7.77;2.77;;;;;;;1.07;100.00;100276.22;5091700;28;20031;-64
2023/12/18 06:06:40;;;;;;;6.00;3.67;;;;;;;1.12;100.00;100282.78;5073300;28;20028;-64
2023/12/18 06:09:05;;;;;;;5.30;2.30;;;;;;;1.24;100.00;100320.41;5090472;28;20066;-68
2023/12/18 06:11:33;;;;;;;4.67;3.10;;;;;;;1.22;100.00;100312.66;5091389;28;20124;-63
2023/12/18 06:13:59;;;;;;;7.17;3.10;;;;;;;1.29;100.00;100315.66;5090965;28;20067;-65
2023/12/18 06:16:26;;;;;;;5.23;3.10;;;;;;;1.27;100.00;100309.69;5091098;28;20286;-64
2023/12/18 06:18:52;;;;;;;6.00;2.90;;;;;;;1.28;100.00;100318.38;5093116;28;20347;-64
2023/12/18 06:21:18;;;;;;;7.67;2.40;;;;;;;1.27;100.00;100320.16;5095296;28;20278;-66
2023/12/18 06:23:43;;;;;;;8.03;3.00;;;;;;;1.17;100.00;100319.19;5095282;28;20034;-65
2023/12/18 06:26:09;;;;;;;9.53;3.10;;;;;;;1.20;100.00;100322.41;5095439;28;20127;-65
2023/12/18 06:28:35;;;;;;;13.60;2.83;;;;;;;1.20;100.00;100308.47;5095603;28;20028;-65
2023/12/18 06:31:00;;;;;;;5.90;2.93;;;;;;;1.15;100.00;100306.16;5095052;28;20036;-64
2023/12/18 06:33:26;;;;;;;5.40;2.83;;;;;;;1.17;100.00;100316.56;5095242;28;20133;-63
2023/12/18 06:35:52;;;;;;;7.27;2.40;;;;;;;1.24;100.00;100336.13;5094039;28;20074;-64
2023/12/18 06:38:18;;;;;;;6.90;2.47;;;;;;;1.21;100.00;100331.13;5095444;28;20047;-67
2023/12/18 06:40:44;;;;;;;3.67;2.43;;;;;;;1.30;100.00;100332.22;5095460;28;20544;-63
2023/12/18 06:43:10;;;;;;;6.07;2.07;;;;;;;1.10;100.00;100295.19;5095784;28;20262;-64
2023/12/18 06:45:35;;;;;;;7.60;2.80;;;;;;;1.21;100.00;100329.34;5095175;28;20514;-63
2023/12/18 06:48:01;;;;;;;7.63;2.90;;;;;;;1.29;100.00;100344.50;5093813;28;20122;-64
2023/12/18 06:50:28;;;;;;;5.37;3.00;;;;;;;0.41;100.00;100198.97;5093677;28;20028;-64
2023/12/18 06:52:54;;;;;;;4.70;2.37;;;;;;;1.24;100.00;100351.88;5096548;28;20364;-68
2023/12/18 06:55:21;;;;;;;3.83;2.03;;;;;;;1.17;100.00;100333.13;5098655;28;20839;-65
2023/12/18 06:57:46;;;;;;;5.17;2.47;;;;;;;1.33;100.00;100359.06;5094953;28;20076;-66
2023/12/18 07:00:13;;;;;;;6.43;2.70;;;;;;;1.27;100.00;100359.53;5094618;28;20258;-70
2023/12/18 07:02:38;;;;;;;4.77;2.47;;;;;;;1.38;100.00;100362.19;5094740;28;20376;-66
2023/12/18 07:05:04;;;;;;;5.87;2.17;;;;;;;1.23;100.00;100342.34;5094567;28;20315;-65
2023/12/18 07:07:30;;;;;;;9.83;2.37;;;;;;;1.40;100.00;100357.66;5094504;28;20036;-65
2023/12/18 07:09:56;;;;;;;2.87;2.20;;;;;;;1.31;100.00;100341.75;5095112;28;20318;-63
2023/12/18 07:12:21;;;;;;;3.13;2.13;;;;;;;1.33;100.00;100361.69;5104171;28;20032;-66
2023/12/18 07:14:50;;;;;;;6.20;2.43;;;;;;;1.39;100.00;100370.88;5102687;28;20853;-65
2023/12/18 07:17:16;;;;;;;4.88;2.95;;;;;;;1.31;100.00;100347.00;5104394;28;20096;-66
2023/12/18 07:19:41;;;;;;;5.10;2.60;;;;;;;1.29;100.00;100341.03;5111553;28;20032;-67
2023/12/18 07:22:07;;;;;;;11.73;3.37;;;;;;;1.40;100.00;100362.91;5089081;28;20054;-65
2023/12/18 07:24:33;;;;;;;5.90;3.30;;;;;;;1.44;100.00;100368.75;5105176;28;20126;-66
2023/12/18 07:26:59;;;;;;;6.53;3.10;;;;;;;1.39;100.00;100366.47;5102033;28;20038;-67
2023/12/18 07:29:24;;;;;;;7.53;3.47;;;;;;;1.22;100.00;100333.63;5103269;28;20161;-65
2023/12/18 07:31:50;;;;;;;2.93;2.03;;;;;;;1.21;100.00;100339.84;5092785;28;20361;-65
2023/12/18 07:34:16;;;;;;;3.07;2.50;;;;;;;1.37;100.00;100365.75;5094173;28;20176;-65
2023/12/18 07:36:41;;;;;;;4.90;2.50;;;;;;;1.30;100.00;100355.84;5094005;28;20042;-67
2023/12/18 07:39:07;;;;;;;5.17;2.00;;;;;;;1.38;100.00;100375.28;5094218;28;20036;-66
2023/12/18 07:41:33;;;;;;;2.70;2.20;;;;;;;1.32;100.00;100370.50;5094198;28;20040;-66
2023/12/18 07:43:59;;;;;;;5.60;1.70;;;;;;;1.38;100.00;100390.19;5098049;28;20035;-66
2023/12/18 07:46:26;;;;;;;2.33;1.77;;;;;;;1.22;100.00;100375.59;5114327;28;20944;-65
2023/12/18 07:48:53;;;;;;;5.73;1.80;;;;;;;1.25;100.00;100377.16;5114066;28;20043;-65
2023/12/18 07:51:19;;;;;;;2.70;1.70;;;;;;;1.24;100.00;100389.44;5114311;27;20261;-64
2023/12/18 07:53:44;;;;;;;1.70;1.60;;;;;;;1.21;100.00;100384.41;5112848;28;20266;-65
2023/12/18 07:56:10;;;;;;;4.47;1.50;;;;;;;1.24;100.00;100375.50;5113648;28;20035;-68
2023/12/18 07:58:36;;;;;;;3.20;1.70;;;;;;;0.89;100.00;100315.97;5113382;28;20058;-70
2023/12/18 08:01:03;;;;;;;4.67;1.80;;;;;;;1.32;100.00;100375.75;5105092;28;20510;-72
2023/12/18 08:03:29;;;;;;;3.27;2.13;;;;;;;1.29;100.00;100368.13;5102033;28;20499;-66
2023/12/18 08:05:55;;;;;;;3.47;1.67;;;;;;;1.31;100.00;100368.84;5102205;28;20284;-69
2023/12/18 08:08:21;;;;;;;3.13;1.67;;;;;;;1.35;100.00;100375.53;5102137;28;20483;-70
2023/12/18 08:10:46;;;;;;;2.87;1.50;;;;;;;1.37;100.00;100386.75;5103104;28;20445;-67
2023/12/18 08:13:12;;;;;;;3.60;2.10;;;;;;;1.34;100.00;100379.09;5102449;28;20135;-71
2023/12/18 08:15:38;;;;;;;2.60;1.87;;;;;;;1.34;100.00;100378.25;5101656;28;20051;-67
2023/12/18 08:18:08;;;;;;;2.07;1.90;;;;;;;1.42;100.00;100400.34;5103087;28;20098;-66
2023/12/18 08:20:33;;;;;;;4.20;2.67;;;;;;;1.21;100.00;100373.09;5101951;28;20284;-67
2023/12/18 08:22:59;;;;;;;2.27;1.97;;;;;;;1.20;100.00;100360.94;5104281;28;20711;-68
2023/12/18 08:25:25;;;;;;;3.90;1.60;;;;;;;1.40;100.00;100399.63;5105571;28;20035;-71
2023/12/18 08:27:51;;;;;;;3.93;1.90;;;;;;;1.46;100.00;100408.88;5101541;27;20044;-68
2023/12/18 08:30:16;;;;;;;1.83;1.63;;;;;;;1.47;100.00;100415.78;5101877;28;20353;-71
2023/12/18 08:32:42;;;;;;;2.63;2.40;;;;;;;1.37;100.00;100420.84;5103506;28;20482;-73
2023/12/18 08:35:08;;;;;;;2.80;1.93;;;;;;;1.33;100.00;100426.44;5103404;28;20528;-74
2023/12/18 08:37:33;;;;;;;3.07;2.13;;;;;;;1.44;100.00;100426.47;5114019;27;20043;-65
2023/12/18 08:39:59;;;;;;;2.47;2.10;;;;;;;1.46;100.00;100425.44;5117667;28;20284;-68
2023/12/18 08:42:25;;;;;;;2.90;2.00;;;;;;;1.45;100.00;100415.91;5104311;28;20529;-65
2023/12/18 08:44:50;;;;;;;2.63;1.90;;;;;;;1.31;100.00;100389.81;5104091;28;20051;-66
2023/12/18 08:47:16;;;;;;;2.97;1.87;;;;;;;1.57;100.00;100415.94;5104119;28;20041;-66
2023/12/18 08:49:42;;;;;;;8.73;3.60;;;;;;;1.50;100.00;100399.81;5103711;28;20402;-67
2023/12/18 08:52:08;;;;;;;2.73;2.23;;;;;;;1.47;100.00;100398.25;5097426;28;20040;-66
2023/12/18 08:54:33;;;;;;;2.73;2.27;;;;;;;1.35;100.00;100391.28;5126447;28;20091;-69
2023/12/18 08:56:59;;;;;;;3.53;2.27;;;;;;;1.55;100.00;100414.25;5108445;28;20076;-69
2023/12/18 08:59:25;;;;;;;4.20;2.43;;;;;;;1.45;100.00;100392.28;5095832;28;20050;-70
2023/12/18 09:01:51;;;;;;;4.07;2.57;;;;;;;1.49;100.00;100393.72;5102975;28;20039;-69
2023/12/18 09:04:17;;;;;;;7.57;3.37;;;;;;;1.57;100.00;100405.44;5105228;28;20266;-68
2023/12/18 09:06:42;;;;;;;2.97;2.53;;;;;;;1.52;100.00;100385.63;5112357;28;20520;-71
2023/12/18 09:09:09;;;;;;;2.77;2.20;;;;;;;1.61;100.00;100406.88;5107395;28;20073;-72
2023/12/18 09:11:35;;;;;;;3.87;2.97;;;;;;;1.49;100.00;100393.72;5110258;28;20487;-68
2023/12/18 09:14:04;;;;;;;10.87;4.63;;;;;;;1.63;100.00;100394.47;5107761;28;20301;-67
2023/12/18 09:16:30;;;;;;;;;;;;;;;1.67;100.00;100402.00;5111707;28;20477;-69
2023/12/18 09:18:59;;;;;;;4.93;3.13;;;;;;;1.58;100.00;100386.13;5107432;28;19942;-66
2023/12/18 09:21:26;;;;;;;4.63;3.77;;;;;;;1.39;100.00;100363.84;5108028;28;20059;-68
2023/12/18 09:23:52;;;;;;;5.53;2.93;;;;;;;1.51;100.00;100364.75;5112193;28;20346;-69
2023/12/18 09:26:20;;;;;;;7.17;4.93;;;;;;;1.59;100.00;100375.50;5112740;28;20376;-68
2023/12/18 09:28:46;;;;;;;8.18;3.75;;;;;;;1.44;100.00;100345.97;5111435;28;20039;-67
2023/12/18 09:31:11;;;;;;;3.93;2.90;;;;;;;1.46;100.00;100333.59;5109402;28;20081;-70
2023/12/18 09:33:37;;;;;;;4.67;3.10;;;;;;;1.55;100.00;100337.31;5110722;28;20032;-67
2023/12/18 09:36:05;;;;;;;7.53;4.23;;;;;;;1.66;100.00;100368.81;5102256;28;20043;-69
2023/12/18 09:38:30;;;;;;;5.53;3.65;;;;;;;1.69;100.00;100379.09;5103273;28;20077;-71
2023/12/18 09:40:56;;;;;;;7.70;3.90;;;;;;;1.63;100.00;100362.97;5102222;28;20207;-66
2023/12/18 09:43:43;;;;;;;5.10;4.53;;;;;;;1.63;100.00;100352.47;5099762;28;20028;-70
2023/12/18 09:46:08;;;;;;;6.70;3.30;;;;;;;1.70;100.00;100365.03;5102083;28;20038;-66
2023/12/18 09:48:37;;;;;;;4.27;3.07;;;;;;;1.46;100.00;100341.47;5099754;28;20277;-69
2023/12/18 09:51:08;;;;;;;4.07;2.70;;;;;;;1.59;100.00;100356.28;5082869;28;20039;-68
2023/12/18 09:53:33;;;;;;;3.97;2.67;;;;;;;1.62;100.00;100371.81;5102965;28;20031;-67
2023/12/18 09:56:01;;;;;;;6.27;3.10;;;;;;;1.61;100.00;100375.38;5102983;28;20349;-70
2023/12/18 09:58:27;;;;;;;3.53;3.20;;;;;;;1.59;100.00;100372.03;5111550;28;20043;-69
2023/12/18 10:00:53;;;;;;;3.93;3.07;;;;;;;1.67;100.00;100374.91;5112151;28;20272;-66
2023/12/18 10:03:19;;;;;;;4.33;3.17;;;;;;;1.82;100.00;100400.88;5111879;28;20273;-68
2023/12/18 10:05:46;;;;;;;4.70;3.10;;;;;;;1.66;100.00;100370.63;5111790;28;20272;-67
2023/12/18 10:08:11;;;;;;;7.93;3.00;;;;;;;1.70;100.00;100379.94;5110103;28;20101;-67
2023/12/18 10:10:37;;;;;;;5.60;2.60;;;;;;;1.67;100.00;100381.00;5092394;28;20679;-66
2023/12/18 10:13:05;;;;;;;8.63;3.07;;;;;;;1.48;100.00;100350.06;5110856;28;20035;-67
2023/12/18 10:15:33;;;;;;;4.22;3.05;;;;;;;1.74;100.00;100381.41;5110838;28;20131;-65
2023/12/18 10:18:02;;;;;;;3.73;2.80;;;;;;;1.78;100.00;100375.81;5109643;28;20052;-65
2023/12/18 10:20:28;;;;;;;5.77;3.13;;;;;;;1.94;100.00;100403.50;5110841;28;20748;-66
2023/12/18 10:22:54;;;;;;;4.00;2.53;;;;;;;1.91;100.00;100398.50;5111490;28;20261;-68
2023/12/18 10:25:23;;;;;;;3.30;3.00;;;;;;;1.86;100.00;100378.69;5111450;28;20046;-65
2023/12/18 10:27:48;;;;;;;3.63;2.87;;;;;;;1.96;100.00;100404.22;5111960;28;20478;-65
2023/12/18 10:30:14;;;;;;;5.63;3.13;;;;;;;1.79;100.00;100368.75;5111641;28;20266;-65
2023/12/18 10:32:40;;;;;;;5.63;3.17;;;;;;;1.89;100.00;100374.97;5111693;28;20043;-66
2023/12/18 10:35:06;;;;;;;3.83;3.30;;;;;;;1.95;100.00;100392.88;5111709;28;20077;-66
2023/12/18 10:37:33;;;;;;;3.37;2.73;;;;;;;1.87;100.00;100369.00;5111519;28;20803;-64
2023/12/18 10:40:06;;;;;;;3.23;2.93;;;;;;;1.83;100.00;100370.19;5111359;28;20105;-64
2023/12/18 10:42:37;;;;;;;4.43;2.60;;;;;;;1.63;100.00;100326.22;5110304;28;20610;-67
2023/12/18 10:45:08;;;;;;;3.80;3.20;;;;;;;1.94;100.00;100362.31;5110054;28;20285;-66
2023/12/18 10:47:34;;;;;;;5.47;2.70;;;;;;;1.97;100.00;100345.50;5111473;28;20308;-67
2023/12/18 10:50:01;;;;;;;4.43;2.90;;;;;;;2.03;100.00;100353.78;5111381;28;20636;-65
2023/12/18 10:52:31;;;;;;;3.40;3.10;;;;;;;2.07;100.00;100352.56;5111737;28;20363;-65
2023/12/18 10:55:03;;;;;;;4.37;3.17;;;;;;;2.01;100.00;100342.50;5111792;28;20277;-65
2023/12/18 10:57:37;;;;;;;4.07;3.33;;;;;;;2.06;100.00;100356.16;5111456;28;20617;-65
2023/12/18 11:00:04;;;;;;;6.17;3.93;;;;;;;2.15;100.00;100370.38;5076158;28;20274;-64
2023/12/18 11:02:34;;;;;;;6.83;4.40;;;;;;;2.20;100.00;100368.22;5111093;28;20273;-64
2023/12/18 11:05:01;;;;;;;4.67;3.40;;;;;;;2.04;100.00;100344.94;5114382;28;20322;-67
2023/12/18 11:07:29;;;;;;;7.77;3.57;;;;;;;2.16;100.00;100362.34;5113557;28;20265;-65
2023/12/18 11:09:55;;;;;;;5.03;2.87;;;;;;;2.13;100.00;100361.75;5114739;28;20269;-65
2023/12/18 11:12:23;;;;;;;5.27;3.07;;;;;;;1.83;100.00;100317.69;5114916;28;20319;-65
2023/12/18 11:15:05;;;;;;;3.75;3.45;;;;;;;2.25;100.00;100375.72;5114634;28;20112;-67
2023/12/18 11:17:55;;;;;;;3.80;3.37;;;;;;;2.27;100.00;100379.06;5113660;28;20050;-66
2023/12/18 11:20:36;;;;;;;5.40;3.97;;;;;;;2.24;100.00;100384.56;5115347;28;20257;-64